createdAt,value
2022-12-07T00:00:02.738Z,81.45428036654685
2022-12-07T00:15:02.567Z,81.70022917020825
2022-12-07T00:30:02.622Z,81.41126121659124
2022-12-07T00:45:02.491Z,81.60871174548798
2022-12-07T01:00:02.436Z,81.64248108049738
2022-12-07T01:15:02.257Z,81.05419463958168
2022-12-07T01:30:02.274Z,81.94925099768106
2022-12-07T01:45:02.116Z,81.92024518749527
2022-12-07T02:00:02.096Z,81.8225838794874
2022-12-07T02:15:01.966Z,81.8274837472626
2022-12-07T02:30:02.272Z,81.70142627960955
2022-12-07T02:45:02.318Z,81.34457445433529
2022-12-07T03:00:02.493Z,81.26875930114585
2022-12-07T03:15:02.400Z,81.18462956275516
2022-12-07T03:30:02.483Z,80.88488347749534
2022-12-07T03:45:02.402Z,80.894006590057
2022-12-07T04:00:02.427Z,80.27208880816353
2022-12-07T04:15:02.330Z,80.25617189562702
2022-12-07T04:30:02.244Z,80.61351045957258
2022-12-07T04:45:02.069Z,80.39563474986072
2022-12-07T05:00:02.130Z,80.28504494515316
2022-12-07T05:15:02.158Z,80.73649416752068
2022-12-07T05:30:02.641Z,80.63459219961676
2022-12-07T05:45:02.524Z,80.77398397785252
2022-12-07T06:00:02.700Z,80.76841968924863
2022-12-07T06:15:01.661Z,80.80060077681398
2022-12-07T06:30:02.594Z,80.80967302691732
2022-12-07T06:45:02.528Z,80.79090934667516
2022-12-07T07:00:02.503Z,80.63104342729005
2022-12-07T07:15:02.508Z,80.93170629495664
2022-12-07T07:30:02.536Z,80.97828591767366
2022-12-07T07:45:02.392Z,80.88482391780609
2022-12-07T08:00:02.321Z,81.02054902242958
2022-12-07T08:15:02.076Z,81.00465919611214
2022-12-07T08:30:02.159Z,80.85244661363531
2022-12-07T08:45:02.015Z,80.64649519334122
2022-12-07T09:00:02.047Z,80.76813997157076
2022-12-07T09:15:01.897Z,80.86295556588006
2022-12-07T09:30:01.936Z,80.96637058143357
2022-12-07T09:45:01.793Z,81.16287026362542
2022-12-07T10:00:02.513Z,81.04561425032682
2022-12-07T10:15:08.829Z,81.11603498776265
2022-12-07T10:30:01.841Z,80.13233963666518
2022-12-07T10:45:03.042Z,80.44455070763672
2022-12-07T11:00:02.022Z,79.91781242460497
2022-12-07T11:15:01.745Z,79.20624627009337
2022-12-07T11:30:02.660Z,79.41663792873244
2022-12-07T11:45:02.590Z,78.10786992804711
2022-12-07T12:00:02.636Z,78.31408498719126
2022-12-07T12:15:02.741Z,76.53551168731444
2022-12-07T12:30:01.605Z,77.29603747401845
2022-12-07T12:45:02.529Z,75.8865501004212
2022-12-07T13:00:02.419Z,76.10494206139369
2022-12-07T13:15:02.378Z,75.27976122016415
2022-12-07T13:30:02.615Z,75.9474586860574
2022-12-07T13:45:02.858Z,74.80909656845239
2022-12-07T14:00:01.780Z,75.10882797722859
2022-12-07T14:15:03.128Z,75.50136172791152
2022-12-07T14:30:02.016Z,75.57532980413679
2022-12-07T14:45:01.972Z,74.74389856608057
2022-12-07T15:00:01.839Z,75.34812916829286
2022-12-07T15:15:02.776Z,76.89061677978661
2022-12-07T15:30:01.609Z,77.10274460591995
2022-12-07T15:45:02.560Z,77.26297748273151
2022-12-07T16:00:02.367Z,77.28404335874679
2022-12-07T16:15:02.475Z,77.56121998338948
2022-12-07T16:30:02.371Z,77.32863839003002
2022-12-07T16:45:02.246Z,77.92274961287704
2022-12-07T17:00:02.126Z,78.037086677049
2022-12-07T17:15:02.053Z,78.16387955937329
2022-12-07T17:30:02.225Z,78.15865264234839
2022-12-07T17:45:02.265Z,78.2401948555371
2022-12-07T18:00:02.256Z,78.12537062418205
2022-12-07T18:15:02.335Z,78.2435130464049
2022-12-07T18:30:02.204Z,78.42886349857807
2022-12-07T18:45:02.214Z,78.6469573396595
2022-12-07T19:00:02.070Z,78.77686381669122
2022-12-07T19:15:02.055Z,78.99434635197467
2022-12-07T19:30:02.018Z,78.92299581015729
2022-12-07T19:45:02.119Z,78.9525909289113
2022-12-07T20:00:01.980Z,78.89701701960026
2022-12-07T20:15:01.997Z,78.88634011165603
2022-12-07T20:30:01.953Z,78.94993388429528
2022-12-07T20:45:03.651Z,79.17004346718369
2022-12-07T21:00:01.696Z,79.26682026735317
2022-12-07T21:15:02.630Z,79.4234936910013
2022-12-07T21:30:02.532Z,79.57275096854814
2022-12-07T21:45:02.551Z,79.47681961865185
2022-12-07T22:00:02.423Z,79.33079003035495
2022-12-07T22:15:02.535Z,79.34867293972725
2022-12-07T22:30:01.607Z,79.3513134362482
2022-12-07T22:45:02.775Z,79.27001773208708
2022-12-07T23:00:01.855Z,79.35198057185714
2022-12-07T23:15:02.761Z,79.21835948444549
2022-12-07T23:30:01.629Z,79.3288582433765
2022-12-07T23:45:02.540Z,79.50843215181362
